sensor_id;sensor_type;location;lat;lon;timestamp;temperature;humidity
34099;DHT22;20374;49.474;10.944;2023-08-17T00:01:48;21.80;99.90
34099;DHT22;20374;49.474;10.944;2023-08-17T00:04:14;21.80;99.90
34099;DHT22;20374;49.474;10.944;2023-08-17T00:06:40;21.80;99.90
34099;DHT22;20374;49.474;10.944;2023-08-17T00:09:06;21.80;99.90
34099;DHT22;20374;49.474;10.944;2023-08-17T00:11:33;21.70;99.90
34099;DHT22;20374;49.474;10.944;2023-08-17T00:13:59;21.70;99.90
34099;DHT22;20374;49.474;10.944;2023-08-17T00:16:25;21.70;99.90
34099;DHT22;20374;49.474;10.944;2023-08-17T00:18:51;21.60;99.90
34099;DHT22;20374;49.474;10.944;2023-08-17T00:21:17;21.70;99.90
34099;DHT22;20374;49.474;10.944;2023-08-17T00:23:43;21.70;99.90
34099;DHT22;20374;49.474;10.944;2023-08-17T00:26:09;21.70;99.90
34099;DHT22;20374;49.474;10.944;2023-08-17T00:28:35;21.70;99.90
34099;DHT22;20374;49.474;10.944;2023-08-17T00:31:01;21.70;99.90
34099;DHT22;20374;49.474;10.944;2023-08-17T00:33:28;21.70;99.90
34099;DHT22;20374;49.474;10.944;2023-08-17T00:35:53;21.60;99.90
34099;DHT22;20374;49.474;10.944;2023-08-17T00:38:19;21.50;99.90
34099;DHT22;20374;49.474;10.944;2023-08-17T00:40:46;21.40;99.90
34099;DHT22;20374;49.474;10.944;2023-08-17T00:43:12;21.30;99.90
34099;DHT22;20374;49.474;10.944;2023-08-17T00:45:38;21.30;99.90
34099;DHT22;20374;49.474;10.944;2023-08-17T00:48:05;21.20;99.90
34099;DHT22;20374;49.474;10.944;2023-08-17T00:50:34;21.20;99.90
34099;DHT22;20374;49.474;10.944;2023-08-17T00:53:01;21.30;99.90
34099;DHT22;20374;49.474;10.944;2023-08-17T00:55:28;21.30;99.90
34099;DHT22;20374;49.474;10.944;2023-08-17T00:57:56;21.50;99.90
34099;DHT22;20374;49.474;10.944;2023-08-17T01:00:24;21.50;99.90
34099;DHT22;20374;49.474;10.944;2023-08-17T01:02:51;21.50;99.90
34099;DHT22;20374;49.474;10.944;2023-08-17T01:05:17;21.50;99.90
34099;DHT22;20374;49.474;10.944;2023-08-17T01:07:43;21.50;99.90
34099;DHT22;20374;49.474;10.944;2023-08-17T01:10:09;21.50;99.90
34099;DHT22;20374;49.474;10.944;2023-08-17T01:15:17;21.40;99.90
34099;DHT22;20374;49.474;10.944;2023-08-17T01:18:00;21.40;99.90
34099;DHT22;20374;49.474;10.944;2023-08-17T01:20:31;21.40;99.90
34099;DHT22;20374;49.474;10.944;2023-08-17T01:23:07;21.30;99.90
34099;DHT22;20374;49.474;10.944;2023-08-17T01:25:33;21.20;99.90
34099;DHT22;20374;49.474;10.944;2023-08-17T01:28:03;21.20;99.90
34099;DHT22;20374;49.474;10.944;2023-08-17T01:33:20;21.20;99.90
34099;DHT22;20374;49.474;10.944;2023-08-17T01:36:11;21.20;99.90
34099;DHT22;20374;49.474;10.944;2023-08-17T01:38:40;21.10;99.90
34099;DHT22;20374;49.474;10.944;2023-08-17T01:41:10;21.10;99.90
34099;DHT22;20374;49.474;10.944;2023-08-17T01:43:44;21.00;99.90
34099;DHT22;20374;49.474;10.944;2023-08-17T01:46:15;21.00;99.90
34099;DHT22;20374;49.474;10.944;2023-08-17T01:48:45;21.00;99.90
34099;DHT22;20374;49.474;10.944;2023-08-17T01:51:17;21.00;99.90
34099;DHT22;20374;49.474;10.944;2023-08-17T01:53:45;21.00;99.90
34099;DHT22;20374;49.474;10.944;2023-08-17T01:56:11;21.10;99.90
34099;DHT22;20374;49.474;10.944;2023-08-17T01:58:37;21.00;99.90
34099;DHT22;20374;49.474;10.944;2023-08-17T02:01:04;21.10;99.90
34099;DHT22;20374;49.474;10.944;2023-08-17T02:03:30;21.10;99.90
34099;DHT22;20374;49.474;10.944;2023-08-17T02:05:57;21.10;99.90
34099;DHT22;20374;49.474;10.944;2023-08-17T02:08:26;21.10;99.90
34099;DHT22;20374;49.474;10.944;2023-08-17T02:10:53;21.10;99.90
34099;DHT22;20374;49.474;10.944;2023-08-17T02:13:21;21.10;99.90
34099;DHT22;20374;49.474;10.944;2023-08-17T02:15:47;21.10;99.90
34099;DHT22;20374;49.474;10.944;2023-08-17T02:18:13;21.10;99.90
34099;DHT22;20374;49.474;10.944;2023-08-17T02:20:39;21.10;99.90
34099;DHT22;20374;49.474;10.944;2023-08-17T02:23:04;21.10;99.90
34099;DHT22;20374;49.474;10.944;2023-08-17T02:25:30;21.10;99.90
34099;DHT22;20374;49.474;10.944;2023-08-17T02:28:04;21.20;99.90
34099;DHT22;20374;49.474;10.944;2023-08-17T02:30:30;21.20;99.90
34099;DHT22;20374;49.474;10.944;2023-08-17T02:32:58;21.10;99.90
34099;DHT22;20374;49.474;10.944;2023-08-17T02:35:24;21.10;99.90
34099;DHT22;20374;49.474;10.944;2023-08-17T02:37:50;21.20;99.90
34099;DHT22;20374;49.474;10.944;2023-08-17T02:40:16;21.10;99.90
34099;DHT22;20374;49.474;10.944;2023-08-17T02:42:47;21.10;99.90
34099;DHT22;20374;49.474;10.944;2023-08-17T02:45:12;21.00;99.90
34099;DHT22;20374;49.474;10.944;2023-08-17T02:47:38;21.00;99.90
34099;DHT22;20374;49.474;10.944;2023-08-17T02:50:05;20.90;99.90
34099;DHT22;20374;49.474;10.944;2023-08-17T02:52:32;20.90;99.90
34099;DHT22;20374;49.474;10.944;2023-08-17T02:54:58;20.90;99.90
34099;DHT22;20374;49.474;10.944;2023-08-17T02:57:24;20.80;99.90
34099;DHT22;20374;49.474;10.944;2023-08-17T02:59:50;20.80;99.90
34099;DHT22;20374;49.474;10.944;2023-08-17T03:02:15;20.80;99.90
34099;DHT22;20374;49.474;10.944;2023-08-17T03:04:41;20.70;99.90
34099;DHT22;20374;49.474;10.944;2023-08-17T03:07:07;20.70;99.90
34099;DHT22;20374;49.474;10.944;2023-08-17T03:09:33;20.70;99.90
34099;DHT22;20374;49.474;10.944;2023-08-17T03:11:59;20.70;99.90
34099;DHT22;20374;49.474;10.944;2023-08-17T03:14:25;20.70;99.90
34099;DHT22;20374;49.474;10.944;2023-08-17T03:16:51;20.80;99.90
34099;DHT22;20374;49.474;10.944;2023-08-17T03:19:17;20.80;99.90
34099;DHT22;20374;49.474;10.944;2023-08-17T03:21:43;20.80;99.90
34099;DHT22;20374;49.474;10.944;2023-08-17T03:24:10;20.80;99.90
34099;DHT22;20374;49.474;10.944;2023-08-17T03:26:36;20.80;99.90
34099;DHT22;20374;49.474;10.944;2023-08-17T03:29:02;20.80;99.90
34099;DHT22;20374;49.474;10.944;2023-08-17T03:31:28;20.90;99.90
34099;DHT22;20374;49.474;10.944;2023-08-17T03:33:54;20.80;99.90
34099;DHT22;20374;49.474;10.944;2023-08-17T03:36:21;20.70;99.90
34099;DHT22;20374;49.474;10.944;2023-08-17T03:38:47;20.70;99.90
34099;DHT22;20374;49.474;10.944;2023-08-17T03:41:13;20.70;99.90
34099;DHT22;20374;49.474;10.944;2023-08-17T03:43:39;20.70;99.90
34099;DHT22;20374;49.474;10.944;2023-08-17T03:46:05;20.70;99.90
34099;DHT22;20374;49.474;10.944;2023-08-17T03:48:31;20.70;99.90
34099;DHT22;20374;49.474;10.944;2023-08-17T03:50:57;20.70;99.90
34099;DHT22;20374;49.474;10.944;2023-08-17T03:53:23;20.70;99.90
34099;DHT22;20374;49.474;10.944;2023-08-17T03:55:50;20.70;99.90
34099;DHT22;20374;49.474;10.944;2023-08-17T03:58:17;20.70;99.90
34099;DHT22;20374;49.474;10.944;2023-08-17T04:00:51;20.60;99.90
34099;DHT22;20374;49.474;10.944;2023-08-17T04:03:20;20.60;99.90
34099;DHT22;20374;49.474;10.944;2023-08-17T04:05:45;20.50;99.90
34099;DHT22;20374;49.474;10.944;2023-08-17T04:08:11;20.40;99.90
34099;DHT22;20374;49.474;10.944;2023-08-17T04:10:38;20.30;99.90
34099;DHT22;20374;49.474;10.944;2023-08-17T04:13:04;20.20;99.90
34099;DHT22;20374;49.474;10.944;2023-08-17T04:15:30;20.20;99.90
34099;DHT22;20374;49.474;10.944;2023-08-17T04:17:56;20.10;99.90
34099;DHT22;20374;49.474;10.944;2023-08-17T04:20:22;20.10;99.90
34099;DHT22;20374;49.474;10.944;2023-08-17T04:22:48;20.00;99.90
34099;DHT22;20374;49.474;10.944;2023-08-17T04:25:14;20.00;99.90
34099;DHT22;20374;49.474;10.944;2023-08-17T04:27:40;20.00;99.90
34099;DHT22;20374;49.474;10.944;2023-08-17T04:30:07;20.00;99.90
34099;DHT22;20374;49.474;10.944;2023-08-17T04:32:42;20.00;99.90
34099;DHT22;20374;49.474;10.944;2023-08-17T04:35:08;19.90;99.90
34099;DHT22;20374;49.474;10.944;2023-08-17T04:37:35;19.90;99.90
34099;DHT22;20374;49.474;10.944;2023-08-17T04:40:02;19.90;99.90
34099;DHT22;20374;49.474;10.944;2023-08-17T04:42:29;19.90;99.90
34099;DHT22;20374;49.474;10.944;2023-08-17T04:44:55;19.90;99.90
34099;DHT22;20374;49.474;10.944;2023-08-17T04:47:21;19.80;99.90
34099;DHT22;20374;49.474;10.944;2023-08-17T04:49:47;19.80;99.90
34099;DHT22;20374;49.474;10.944;2023-08-17T04:52:13;19.60;99.90
34099;DHT22;20374;49.474;10.944;2023-08-17T04:54:39;19.60;99.90
34099;DHT22;20374;49.474;10.944;2023-08-17T04:57:05;19.60;99.90
34099;DHT22;20374;49.474;10.944;2023-08-17T04:59:31;19.60;99.90
34099;DHT22;20374;49.474;10.944;2023-08-17T05:01:57;19.70;99.90
34099;DHT22;20374;49.474;10.944;2023-08-17T05:04:23;19.70;99.90
34099;DHT22;20374;49.474;10.944;2023-08-17T05:06:48;19.80;99.90
34099;DHT22;20374;49.474;10.944;2023-08-17T05:09:14;19.80;99.90
34099;DHT22;20374;49.474;10.944;2023-08-17T05:11:40;19.90;99.90
34099;DHT22;20374;49.474;10.944;2023-08-17T05:14:06;19.90;99.90
34099;DHT22;20374;49.474;10.944;2023-08-17T05:16:32;20.20;99.90
34099;DHT22;20374;49.474;10.944;2023-08-17T05:18:59;20.60;99.90
34099;DHT22;20374;49.474;10.944;2023-08-17T05:21:26;21.10;99.90
34099;DHT22;20374;49.474;10.944;2023-08-17T05:23:52;21.70;99.90
34099;DHT22;20374;49.474;10.944;2023-08-17T05:26:18;22.10;99.90
34099;DHT22;20374;49.474;10.944;2023-08-17T05:28:44;22.30;99.90
34099;DHT22;20374;49.474;10.944;2023-08-17T05:31:10;22.40;99.90
34099;DHT22;20374;49.474;10.944;2023-08-17T05:33:40;22.20;99.90
34099;DHT22;20374;49.474;10.944;2023-08-17T05:36:07;22.30;99.90
34099;DHT22;20374;49.474;10.944;2023-08-17T05:38:33;22.60;99.90
34099;DHT22;20374;49.474;10.944;2023-08-17T05:40:59;22.60;99.90
34099;DHT22;20374;49.474;10.944;2023-08-17T05:43:25;22.70;99.90
34099;DHT22;20374;49.474;10.944;2023-08-17T05:45:52;22.90;99.90
34099;DHT22;20374;49.474;10.944;2023-08-17T05:48:22;23.30;99.90
34099;DHT22;20374;49.474;10.944;2023-08-17T05:50:48;24.00;99.90
34099;DHT22;20374;49.474;10.944;2023-08-17T05:53:13;24.20;99.90
34099;DHT22;20374;49.474;10.944;2023-08-17T05:55:39;24.00;99.90
34099;DHT22;20374;49.474;10.944;2023-08-17T05:58:05;23.80;99.90
34099;DHT22;20374;49.474;10.944;2023-08-17T06:00:31;23.60;99.90
34099;DHT22;20374;49.474;10.944;2023-08-17T06:02:57;24.20;99.90
34099;DHT22;20374;49.474;10.944;2023-08-17T06:05:27;24.90;99.90
34099;DHT22;20374;49.474;10.944;2023-08-17T06:07:55;25.20;99.90
34099;DHT22;20374;49.474;10.944;2023-08-17T06:10:21;25.40;99.90
34099;DHT22;20374;49.474;10.944;2023-08-17T06:12:52;25.80;99.90
34099;DHT22;20374;49.474;10.944;2023-08-17T06:15:18;26.70;99.90
34099;DHT22;20374;49.474;10.944;2023-08-17T06:17:44;27.70;99.90
34099;DHT22;20374;49.474;10.944;2023-08-17T06:20:11;28.60;99.90
34099;DHT22;20374;49.474;10.944;2023-08-17T06:22:37;29.20;99.90
34099;DHT22;20374;49.474;10.944;2023-08-17T06:25:04;29.70;99.90
34099;DHT22;20374;49.474;10.944;2023-08-17T06:27:31;29.20;99.90
34099;DHT22;20374;49.474;10.944;2023-08-17T06:29:57;28.60;99.90
34099;DHT22;20374;49.474;10.944;2023-08-17T06:32:23;27.90;99.90
34099;DHT22;20374;49.474;10.944;2023-08-17T06:34:49;27.20;99.90
34099;DHT22;20374;49.474;10.944;2023-08-17T06:37:15;26.80;99.90
34099;DHT22;20374;49.474;10.944;2023-08-17T06:39:41;26.60;99.90
34099;DHT22;20374;49.474;10.944;2023-08-17T06:42:07;26.50;99.90
34099;DHT22;20374;49.474;10.944;2023-08-17T06:44:33;26.40;99.90
34099;DHT22;20374;49.474;10.944;2023-08-17T06:46:58;26.40;99.90
34099;DHT22;20374;49.474;10.944;2023-08-17T06:49:25;26.60;99.90
34099;DHT22;20374;49.474;10.944;2023-08-17T06:51:50;27.00;99.90
34099;DHT22;20374;49.474;10.944;2023-08-17T06:54:19;27.70;99.90
34099;DHT22;20374;49.474;10.944;2023-08-17T06:56:45;28.40;99.90
34099;DHT22;20374;49.474;10.944;2023-08-17T06:59:11;28.90;99.90
34099;DHT22;20374;49.474;10.944;2023-08-17T07:01:37;28.80;99.90
34099;DHT22;20374;49.474;10.944;2023-08-17T07:04:03;28.20;99.90
34099;DHT22;20374;49.474;10.944;2023-08-17T07:06:29;28.30;99.90
34099;DHT22;20374;49.474;10.944;2023-08-17T07:08:55;28.40;99.90
34099;DHT22;20374;49.474;10.944;2023-08-17T07:11:22;29.00;99.90
34099;DHT22;20374;49.474;10.944;2023-08-17T07:13:48;29.60;99.90
34099;DHT22;20374;49.474;10.944;2023-08-17T07:16:14;30.50;98.20
34099;DHT22;20374;49.474;10.944;2023-08-17T07:18:40;31.20;97.90
34099;DHT22;20374;49.474;10.944;2023-08-17T07:21:06;31.70;97.10
34099;DHT22;20374;49.474;10.944;2023-08-17T07:23:32;32.20;95.70
34099;DHT22;20374;49.474;10.944;2023-08-17T07:25:58;32.40;94.70
34099;DHT22;20374;49.474;10.944;2023-08-17T07:28:23;32.50;94.30
34099;DHT22;20374;49.474;10.944;2023-08-17T07:30:49;32.50;94.40
34099;DHT22;20374;49.474;10.944;2023-08-17T07:33:16;32.90;93.20
34099;DHT22;20374;49.474;10.944;2023-08-17T07:35:41;32.80;93.10
34099;DHT22;20374;49.474;10.944;2023-08-17T07:38:07;32.70;93.20
34099;DHT22;20374;49.474;10.944;2023-08-17T07:40:33;32.30;93.90
34099;DHT22;20374;49.474;10.944;2023-08-17T07:42:59;31.60;94.50
34099;DHT22;20374;49.474;10.944;2023-08-17T07:45:25;31.50;94.70
34099;DHT22;20374;49.474;10.944;2023-08-17T07:47:51;31.20;95.20
34099;DHT22;20374;49.474;10.944;2023-08-17T07:50:17;30.90;95.60
34099;DHT22;20374;49.474;10.944;2023-08-17T07:52:43;30.30;96.00
34099;DHT22;20374;49.474;10.944;2023-08-17T07:55:08;29.80;97.10
34099;DHT22;20374;49.474;10.944;2023-08-17T07:57:34;29.50;96.60
34099;DHT22;20374;49.474;10.944;2023-08-17T08:00:00;29.20;97.90
34099;DHT22;20374;49.474;10.944;2023-08-17T08:02:26;28.80;98.00
34099;DHT22;20374;49.474;10.944;2023-08-17T08:04:52;28.60;98.70
34099;DHT22;20374;49.474;10.944;2023-08-17T08:07:18;28.70;98.80
34099;DHT22;20374;49.474;10.944;2023-08-17T08:09:44;29.20;98.20
34099;DHT22;20374;49.474;10.944;2023-08-17T08:12:09;29.60;97.70
34099;DHT22;20374;49.474;10.944;2023-08-17T08:14:35;29.50;97.40
34099;DHT22;20374;49.474;10.944;2023-08-17T08:17:01;29.10;98.10
34099;DHT22;20374;49.474;10.944;2023-08-17T08:19:27;28.70;98.30
34099;DHT22;20374;49.474;10.944;2023-08-17T08:21:53;28.40;98.50
34099;DHT22;20374;49.474;10.944;2023-08-17T08:24:19;28.40;99.10
34099;DHT22;20374;49.474;10.944;2023-08-17T08:26:45;28.60;98.80
34099;DHT22;20374;49.474;10.944;2023-08-17T08:29:10;29.00;98.50
34099;DHT22;20374;49.474;10.944;2023-08-17T08:31:36;29.20;98.60
34099;DHT22;20374;49.474;10.944;2023-08-17T08:34:02;29.30;97.60
34099;DHT22;20374;49.474;10.944;2023-08-17T08:36:28;29.30;98.40
34099;DHT22;20374;49.474;10.944;2023-08-17T08:38:54;29.60;97.20
34099;DHT22;20374;49.474;10.944;2023-08-17T08:41:20;29.60;96.20
34099;DHT22;20374;49.474;10.944;2023-08-17T08:43:47;29.30;96.00
34099;DHT22;20374;49.474;10.944;2023-08-17T08:46:14;29.10;96.50
34099;DHT22;20374;49.474;10.944;2023-08-17T08:48:41;29.10;96.70
34099;DHT22;20374;49.474;10.944;2023-08-17T08:51:08;29.00;96.00
34099;DHT22;20374;49.474;10.944;2023-08-17T08:53:39;28.70;97.60
34099;DHT22;20374;49.474;10.944;2023-08-17T08:56:11;28.70;97.00
34099;DHT22;20374;49.474;10.944;2023-08-17T08:58:38;28.60;96.90
34099;DHT22;20374;49.474;10.944;2023-08-17T09:01:07;28.90;96.90
34099;DHT22;20374;49.474;10.944;2023-08-17T09:03:35;29.80;96.00
34099;DHT22;20374;49.474;10.944;2023-08-17T09:06:02;31.00;94.70
34099;DHT22;20374;49.474;10.944;2023-08-17T09:08:29;32.00;93.00
34099;DHT22;20374;49.474;10.944;2023-08-17T09:10:56;32.70;91.80
34099;DHT22;20374;49.474;10.944;2023-08-17T09:13:22;33.20;91.20
34099;DHT22;20374;49.474;10.944;2023-08-17T09:15:48;33.30;91.10
34099;DHT22;20374;49.474;10.944;2023-08-17T09:18:14;32.60;90.90
34099;DHT22;20374;49.474;10.944;2023-08-17T09:20:45;32.20;91.80
34099;DHT22;20374;49.474;10.944;2023-08-17T09:23:16;32.10;91.70
34099;DHT22;20374;49.474;10.944;2023-08-17T09:25:44;32.60;91.00
34099;DHT22;20374;49.474;10.944;2023-08-17T09:28:13;33.60;89.40
34099;DHT22;20374;49.474;10.944;2023-08-17T09:33:15;35.00;85.80
34099;DHT22;20374;49.474;10.944;2023-08-17T09:35:42;35.80;82.50
34099;DHT22;20374;49.474;10.944;2023-08-17T09:38:08;36.40;80.00
34099;DHT22;20374;49.474;10.944;2023-08-17T09:40:34;36.50;79.20
34099;DHT22;20374;49.474;10.944;2023-08-17T09:43:00;36.00;78.20
34099;DHT22;20374;49.474;10.944;2023-08-17T09:45:27;36.50;79.30
34099;DHT22;20374;49.474;10.944;2023-08-17T09:47:54;36.70;77.90
34099;DHT22;20374;49.474;10.944;2023-08-17T09:50:23;37.40;78.00
34099;DHT22;20374;49.474;10.944;2023-08-17T09:52:54;36.60;76.40
34099;DHT22;20374;49.474;10.944;2023-08-17T09:55:23;37.20;75.70
34099;DHT22;20374;49.474;10.944;2023-08-17T09:57:50;37.10;77.50
34099;DHT22;20374;49.474;10.944;2023-08-17T10:00:20;37.60;76.30
34099;DHT22;20374;49.474;10.944;2023-08-17T10:02:50;37.60;75.20
34099;DHT22;20374;49.474;10.944;2023-08-17T10:05:20;38.00;73.50
34099;DHT22;20374;49.474;10.944;2023-08-17T10:07:49;38.30;71.10
34099;DHT22;20374;49.474;10.944;2023-08-17T10:10:22;37.70;71.90
34099;DHT22;20374;49.474;10.944;2023-08-17T10:13:09;37.20;71.80
34099;DHT22;20374;49.474;10.944;2023-08-17T10:15:38;37.00;72.30
34099;DHT22;20374;49.474;10.944;2023-08-17T10:18:15;37.00;72.80
34099;DHT22;20374;49.474;10.944;2023-08-17T10:20:48;36.90;74.80
34099;DHT22;20374;49.474;10.944;2023-08-17T10:23:19;36.70;73.50
34099;DHT22;20374;49.474;10.944;2023-08-17T10:25:48;36.70;74.80
34099;DHT22;20374;49.474;10.944;2023-08-17T10:28:15;36.50;75.40
34099;DHT22;20374;49.474;10.944;2023-08-17T10:30:42;35.90;75.30
34099;DHT22;20374;49.474;10.944;2023-08-17T10:33:08;34.90;76.70
34099;DHT22;20374;49.474;10.944;2023-08-17T10:35:35;34.00;79.40
34099;DHT22;20374;49.474;10.944;2023-08-17T10:38:03;33.40;80.70
34099;DHT22;20374;49.474;10.944;2023-08-17T10:40:35;32.80;81.80
34099;DHT22;20374;49.474;10.944;2023-08-17T10:43:02;32.20;83.90
34099;DHT22;20374;49.474;10.944;2023-08-17T10:45:32;31.70;85.30
34099;DHT22;20374;49.474;10.944;2023-08-17T10:50:36;31.10;88.70
34099;DHT22;20374;49.474;10.944;2023-08-17T10:53:10;30.90;89.30
34099;DHT22;20374;49.474;10.944;2023-08-17T10:55:41;30.70;89.70
34099;DHT22;20374;49.474;10.944;2023-08-17T10:58:08;30.70;90.30
34099;DHT22;20374;49.474;10.944;2023-08-17T11:00:38;30.60;90.30
34099;DHT22;20374;49.474;10.944;2023-08-17T11:03:06;30.80;90.50
34099;DHT22;20374;49.474;10.944;2023-08-17T11:05:45;30.80;90.40
34099;DHT22;20374;49.474;10.944;2023-08-17T11:08:37;30.80;90.90
34099;DHT22;20374;49.474;10.944;2023-08-17T11:11:06;30.90;90.20
34099;DHT22;20374;49.474;10.944;2023-08-17T11:13:34;30.70;90.40
34099;DHT22;20374;49.474;10.944;2023-08-17T11:16:01;30.50;90.60
34099;DHT22;20374;49.474;10.944;2023-08-17T11:18:27;30.60;91.30
34099;DHT22;20374;49.474;10.944;2023-08-17T11:20:54;30.50;91.10
34099;DHT22;20374;49.474;10.944;2023-08-17T11:23:20;30.50;92.00
34099;DHT22;20374;49.474;10.944;2023-08-17T11:25:47;30.50;91.60
34099;DHT22;20374;49.474;10.944;2023-08-17T11:28:13;30.70;90.70
34099;DHT22;20374;49.474;10.944;2023-08-17T11:30:40;30.70;90.70
34099;DHT22;20374;49.474;10.944;2023-08-17T11:33:07;30.70;90.40
34099;DHT22;20374;49.474;10.944;2023-08-17T11:35:34;30.70;90.40
34099;DHT22;20374;49.474;10.944;2023-08-17T11:38:00;30.80;90.60
34099;DHT22;20374;49.474;10.944;2023-08-17T11:40:26;30.80;90.10
34099;DHT22;20374;49.474;10.944;2023-08-17T11:42:52;30.80;90.50
34099;DHT22;20374;49.474;10.944;2023-08-17T11:45:19;30.80;90.20
34099;DHT22;20374;49.474;10.944;2023-08-17T11:47:46;30.90;91.00
34099;DHT22;20374;49.474;10.944;2023-08-17T11:50:13;31.00;90.40
34099;DHT22;20374;49.474;10.944;2023-08-17T11:52:39;31.10;89.00
34099;DHT22;20374;49.474;10.944;2023-08-17T11:55:07;31.20;89.90
34099;DHT22;20374;49.474;10.944;2023-08-17T11:57:35;31.20;89.30
34099;DHT22;20374;49.474;10.944;2023-08-17T12:00:03;31.30;89.00
34099;DHT22;20374;49.474;10.944;2023-08-17T12:02:31;31.40;88.40
34099;DHT22;20374;49.474;10.944;2023-08-17T12:04:57;31.60;89.30
34099;DHT22;20374;49.474;10.944;2023-08-17T12:07:25;31.70;88.30
34099;DHT22;20374;49.474;10.944;2023-08-17T12:09:52;31.70;86.60
34099;DHT22;20374;49.474;10.944;2023-08-17T12:12:19;31.70;86.20
34099;DHT22;20374;49.474;10.944;2023-08-17T12:14:47;31.50;85.20
34099;DHT22;20374;49.474;10.944;2023-08-17T12:17:18;31.30;85.00
34099;DHT22;20374;49.474;10.944;2023-08-17T12:19:44;31.10;86.20
34099;DHT22;20374;49.474;10.944;2023-08-17T12:22:12;31.30;88.40
34099;DHT22;20374;49.474;10.944;2023-08-17T12:24:38;31.40;87.00
34099;DHT22;20374;49.474;10.944;2023-08-17T12:27:06;31.60;84.80
34099;DHT22;20374;49.474;10.944;2023-08-17T12:29:32;31.60;85.90
34099;DHT22;20374;49.474;10.944;2023-08-17T12:32:04;31.60;87.50
34099;DHT22;20374;49.474;10.944;2023-08-17T12:34:30;31.60;85.00
34099;DHT22;20374;49.474;10.944;2023-08-17T12:36:56;31.90;89.30
34099;DHT22;20374;49.474;10.944;2023-08-17T12:39:22;32.50;84.90
34099;DHT22;20374;49.474;10.944;2023-08-17T12:41:48;33.10;84.10
34099;DHT22;20374;49.474;10.944;2023-08-17T12:44:14;33.60;80.60
34099;DHT22;20374;49.474;10.944;2023-08-17T12:46:40;33.90;81.20
34099;DHT22;20374;49.474;10.944;2023-08-17T12:49:06;34.50;81.60
34099;DHT22;20374;49.474;10.944;2023-08-17T12:51:32;35.40;76.00
34099;DHT22;20374;49.474;10.944;2023-08-17T12:53:58;36.00;71.80
34099;DHT22;20374;49.474;10.944;2023-08-17T12:56:24;35.90;73.20
34099;DHT22;20374;49.474;10.944;2023-08-17T12:58:50;35.00;76.10
34099;DHT22;20374;49.474;10.944;2023-08-17T13:01:16;34.20;77.80
34099;DHT22;20374;49.474;10.944;2023-08-17T13:03:43;33.60;79.50
34099;DHT22;20374;49.474;10.944;2023-08-17T13:06:08;33.30;79.40
34099;DHT22;20374;49.474;10.944;2023-08-17T13:08:34;33.40;81.10
34099;DHT22;20374;49.474;10.944;2023-08-17T13:11:00;34.00;77.70
34099;DHT22;20374;49.474;10.944;2023-08-17T13:13:26;34.80;78.00
34099;DHT22;20374;49.474;10.944;2023-08-17T13:15:52;35.70;76.30
34099;DHT22;20374;49.474;10.944;2023-08-17T13:18:18;36.60;76.90
34099;DHT22;20374;49.474;10.944;2023-08-17T13:20:44;37.30;72.30
34099;DHT22;20374;49.474;10.944;2023-08-17T13:23:10;37.90;69.90
34099;DHT22;20374;49.474;10.944;2023-08-17T13:25:37;38.30;68.40
34099;DHT22;20374;49.474;10.944;2023-08-17T13:28:03;38.10;68.70
34099;DHT22;20374;49.474;10.944;2023-08-17T13:30:29;38.10;66.90
34099;DHT22;20374;49.474;10.944;2023-08-17T13:32:55;38.20;69.20
34099;DHT22;20374;49.474;10.944;2023-08-17T13:35:21;38.40;64.70
34099;DHT22;20374;49.474;10.944;2023-08-17T13:37:56;37.60;66.90
34099;DHT22;20374;49.474;10.944;2023-08-17T13:40:23;37.60;68.50
34099;DHT22;20374;49.474;10.944;2023-08-17T13:42:49;37.70;68.50
34099;DHT22;20374;49.474;10.944;2023-08-17T13:45:15;37.50;69.60
34099;DHT22;20374;49.474;10.944;2023-08-17T13:47:41;37.30;69.00
34099;DHT22;20374;49.474;10.944;2023-08-17T13:50:07;37.10;66.10
34099;DHT22;20374;49.474;10.944;2023-08-17T13:52:33;37.00;67.60
34099;DHT22;20374;49.474;10.944;2023-08-17T13:54:59;37.00;67.70
34099;DHT22;20374;49.474;10.944;2023-08-17T13:57:25;36.90;69.00
34099;DHT22;20374;49.474;10.944;2023-08-17T13:59:51;36.70;69.20
34099;DHT22;20374;49.474;10.944;2023-08-17T14:02:18;36.20;67.70
34099;DHT22;20374;49.474;10.944;2023-08-17T14:04:44;35.90;67.30
34099;DHT22;20374;49.474;10.944;2023-08-17T14:07:10;35.90;68.90
34099;DHT22;20374;49.474;10.944;2023-08-17T14:09:36;35.70;69.60
34099;DHT22;20374;49.474;10.944;2023-08-17T14:12:02;35.00;68.90
34099;DHT22;20374;49.474;10.944;2023-08-17T14:14:28;34.30;68.50
34099;DHT22;20374;49.474;10.944;2023-08-17T14:16:54;33.60;71.30
34099;DHT22;20374;49.474;10.944;2023-08-17T14:19:20;33.10;75.50
34099;DHT22;20374;49.474;10.944;2023-08-17T14:21:46;32.80;77.90
34099;DHT22;20374;49.474;10.944;2023-08-17T14:24:12;32.60;75.70
34099;DHT22;20374;49.474;10.944;2023-08-17T14:26:38;32.30;75.20
34099;DHT22;20374;49.474;10.944;2023-08-17T14:29:04;32.20;76.60
34099;DHT22;20374;49.474;10.944;2023-08-17T14:31:29;31.80;76.60
34099;DHT22;20374;49.474;10.944;2023-08-17T14:33:55;31.70;78.90
34099;DHT22;20374;49.474;10.944;2023-08-17T14:36:21;31.40;81.90
34099;DHT22;20374;49.474;10.944;2023-08-17T14:38:47;31.30;86.70
34099;DHT22;20374;49.474;10.944;2023-08-17T14:41:13;31.10;86.90
34099;DHT22;20374;49.474;10.944;2023-08-17T14:43:39;31.00;85.30
34099;DHT22;20374;49.474;10.944;2023-08-17T14:46:06;30.90;84.70
34099;DHT22;20374;49.474;10.944;2023-08-17T14:48:31;30.80;84.40
34099;DHT22;20374;49.474;10.944;2023-08-17T14:50:57;30.60;84.90
34099;DHT22;20374;49.474;10.944;2023-08-17T14:53:23;30.60;87.60
34099;DHT22;20374;49.474;10.944;2023-08-17T14:55:49;30.60;89.10
34099;DHT22;20374;49.474;10.944;2023-08-17T14:58:15;30.60;90.20
34099;DHT22;20374;49.474;10.944;2023-08-17T15:00:41;30.50;88.70
34099;DHT22;20374;49.474;10.944;2023-08-17T15:03:07;30.40;87.50
34099;DHT22;20374;49.474;10.944;2023-08-17T15:05:33;30.30;87.30
34099;DHT22;20374;49.474;10.944;2023-08-17T15:08:03;30.30;88.30
34099;DHT22;20374;49.474;10.944;2023-08-17T15:10:29;30.10;89.40
34099;DHT22;20374;49.474;10.944;2023-08-17T15:12:55;29.90;90.30
34099;DHT22;20374;49.474;10.944;2023-08-17T15:15:21;29.80;90.30
34099;DHT22;20374;49.474;10.944;2023-08-17T15:17:47;29.60;91.00
34099;DHT22;20374;49.474;10.944;2023-08-17T15:20:13;29.40;90.20
34099;DHT22;20374;49.474;10.944;2023-08-17T15:22:39;29.30;90.10
34099;DHT22;20374;49.474;10.944;2023-08-17T15:25:05;29.20;89.60